Ada, South Dakota
Current Conditions -  °F | °C
As of 10:53 AM on Thursday 23 Oct 2014 (Local Time) from KHEI Reporting Station
Clear Clear  
Wind Chill: 60°   Ceiling: Unl
Heat Index: 60°   Visibility: 10mi
Dew Point: 29°   Wind: 6mph
Humidity: 31%   Direction: 240°WSW
Pressure: 29.92"   Gusts: NA
Location:  45.5161°N, 102.519°W
Report Text: KHEI 231653Z AUTO 24005KT 10SM CLR 16/M02 A2992 RMK AO2 SLP140 T01561017
Loading
Personal Weather Stations






























Interactive Weather Map
Tropical Storm Tracking
New forecast layout! Learn more

10-Day Weather Forecast

Advertisements
Track Severe Weather on mobile